Tiempo atmosférico en la estación meteorológica de Es Mercadal, Illes Balears (77 m.)



Fecha
DESCASC
Temp. máxima en grados centígrados (hora)
DESCASC
Temp. mínima en grados centígrados (hora)
DESCASC
Temp. media en grados centígrados
DESCASC
Racha de viento máxima en m/sg (hora)
DESCASC
Velocidad máxima media en intervalos de 10 minutos(hora)
DESCASC
Precipitaciones diarias en mm
DESCASC
Precipitaciones de 00:00 a 06:00 en mm
DESCASC
Precipitaciones de 06:00 a 12:00 en mm
DESCASC
Precipitaciones de 12:00 a 18:00 en mm
DESCASC
Precipitaciones de 18:00 a 24:00 en mm
DESCASC
22-04-2019 15.5 (16:30) 13.7 (06:20) 14.6 13.61 (04:10) 7.78 (06:00) 8.2 1.2 4.6 2.4 0
21-04-2019 15.9 (00:00) 14 (08:00) 14.9 16.11 (15:50) 9.17 (10:10) 0 0 0 0 0
20-04-2019 17.7 (12:40) 14.5 (20:40) 16.1 18.33 (08:40) 11.11 (05:00) 0 0 0 0 0
19-04-2019 18.4 (12:50) 14.4 (06:50) 16.4 20.28 (12:40) 12.78 (13:30) 0 0 0 0 0
18-04-2019 17.8 (14:00) 13.2 (00:00) 15.5 18.89 (15:40) 12.5 (16:40) 0 0 0 0 0
17-04-2019 20.6 (14:10) 9.5 (00:00) 15.1 9.72 (18:10) 6.39 (18:50) 0 0 0 0 0
16-04-2019 19.4 (12:30) 9.8 (00:00) 14.6 11.11 (09:10) 7.22 (09:10) 0 0 0 0 0
15-04-2019 18.2 (14:10) 9.6 (00:00) 13.9 8.89 (23:30) 5.28 (15:50) 0 0 0 0 0
14-04-2019 18.8 (14:40) 10.8 (00:00) 14.8 7.22 (13:20) 4.44 (13:40) 0 0 0 0 0
13-04-2019 18.3 (13:40) 9.5 (00:00) 13.9 10.28 (14:40) 6.67 (16:10) 0 0 0 0 0
12-04-2019 14.8 (17:10) 9.1 (00:00) 12 16.39 (12:20) 10 (11:40) 3 3 0 0 0
11-04-2019 17.7 (14:40) 10.9 (00:00) 14.3 15 (11:10) 10.28 (11:30) 0.2 0.2 0 0 0
10-04-2019 17.3 (14:30) 9.7 (00:00) 13.5 10.28 (11:30) 6.94 (11:30) 0.2 0 0.2 0 0
09-04-2019 17.8 (16:10) 11.3 (00:00) 14.5 14.72 (11:30) 9.44 (11:00) 0 0 0 0 0
08-04-2019 18.7 (16:30) 8.9 (00:00) 13.8 10.83 (15:10) 7.78 (15:10) 0 0 0 0 0
07-04-2019 14.7 (15:40) 8.4 (00:00) 11.5 12.22 (16:00) 7.5 (14:50) 0 0 0 0 0
06-04-2019 15.9 (15:10) 10.7 (00:00) 13.3 15.28 (02:50) 10.28 (02:50) 1.4 1.4 0 0 0
05-04-2019 15.9 (14:50) 4.6 (00:00) 10.2 13.89 (17:20) 8.61 (18:50) 0.2 0 0 0 0.2
04-04-2019 14.3 (00:00) 4.9 (00:00) 9.6 12.22 (00:50) 6.39 (00:50) 1.6 1.6 0 0 0
03-04-2019 17 (13:30) 12.1 (00:00) 14.6 15.83 (16:10) 11.11 (15:00) 0 0 0 0 0
02-04-2019 18.2 (15:00) 7.7 (00:00) 13 8.89 (13:10) 5.56 (13:20) 0 0 0 0 0
01-04-2019 16.2 (12:00) 10.2 (00:00) 13.2 7.78 (02:50) 5 (03:00) 0 0 0 0 0
31-03-2019 16.9 (14:30) 11.3 (00:00) 14.1 12.78 (12:50) 9.44 (12:50) 0 0 0 0 0
30-03-2019 17.3 (14:00) 7.8 (00:00) 12.5 9.72 (16:20) 5.28 (14:10) 0 0 0 0 0
29-03-2019 16.1 (12:20) 8 (00:00) 12.1 8.33 (09:20) 5.83 (09:20) 0 0 0 0 0
28-03-2019 15.3 (14:40) 8.1 (00:00) 11.7 11.94 (10:10) 7.5 (10:20) 0 0 0 0 0
27-03-2019 14.3 (13:40) 7.6 (00:00) 11 13.06 (10:20) 9.17 (11:00) 0 0 0 0 0
26-03-2019 12.9 (04:20) 7 (00:00) 9.9 19.17 (09:40) 12.78 (09:00) 0 0 0 0 0
25-03-2019 17.5 (10:50) 9.9 (00:00) 13.7 12.5 (12:00) 8.61 (12:10) 0 0 0 0 0

Gráficas

Temp. máximas Temp. mínimas Temp. medias Precipitaciones Rachas de viento máximas Velocidades máximas media en intervalos de 10 minutos

Datos horarios

Fecha y hora oficial Temperatura (ºC) Velocidad del viento (km/h) Dirección del viento Racha (km/h) Dirección de racha Precipitación (mm) Presión (hPa) Tendencia (hPa) Humedad (%)
2019-04-23 23:00:00 15 28 Sudoeste 41 Sudoeste 0 -- -- 84
2019-04-23 22:00:00 15.1 26 Sudoeste 42 Sur 0 -- -- 84
2019-04-23 21:00:00 15.2 24 Sudoeste 38 Sudoeste 0 -- -- 84
2019-04-23 20:00:00 15.9 26 Sudoeste 46 Sudoeste 0 -- -- 82
2019-04-23 19:00:00 16.5 32 Sudoeste 45 Sudoeste 0 -- -- 79
2019-04-23 18:00:00 17.7 25 Sur 45 Sudoeste 0 -- -- 78
2019-04-23 17:00:00 18.4 25 Sur 44 Sudoeste 0 -- -- 78
2019-04-23 16:00:00 18.3 30 Sudoeste 45 Sudoeste 0 -- -- 73
2019-04-23 15:00:00 17.8 27 Sudoeste 45 Sur 0 -- -- 77
2019-04-23 14:00:00 17.2 29 Sudoeste 39 Sudoeste 0 -- -- 81
2019-04-23 13:00:00 17.3 23 Sudoeste 40 Sudoeste 0 -- -- 72
2019-04-23 12:00:00 16.7 23 Sudoeste 38 Sudoeste 0 -- -- 77
2019-04-23 11:00:00 15.3 22 Sudoeste 34 Sudoeste 0 -- -- 81
2019-04-23 10:00:00 14.2 23 Sudoeste 39 Sudoeste 0 -- -- 86
2019-04-23 09:00:00 13.4 26 Oeste 41 Oeste 0.2 -- -- 94
2019-04-23 08:00:00 13.4 25 Oeste 37 Oeste 2.6 -- -- 95
2019-04-23 07:00:00 14.4 7 Oeste 21 Oeste 0 -- -- 95
2019-04-23 06:00:00 14.4 7 Oeste 13 Oeste 0 -- -- 95
2019-04-23 05:00:00 14.2 4 Oeste 12 Oeste 0 -- -- 96
2019-04-23 04:00:00 14.3 6 Norte 9 Norte 0 -- -- 95
2019-04-23 03:00:00 14.5 6 Norte 12 Norte 0 -- -- 95
2019-04-23 02:00:00 14.5 5 Norte 13 Norte 0 -- -- 95
2019-04-23 01:00:00 14.6 4 Nordeste 8 Nordeste 0 -- -- 94
2019-04-23 00:00:00 14.7 0 Calma 15 Sudeste 0 -- -- 94
2019-04-22 23:00:00 14.7 7 Sudeste 26 Este 0 -- -- 94
2019-04-22 22:00:00 14.9 17 Sudeste 30 Este 0 -- -- 94
2019-04-22 21:00:00 14.9 7 Este 15 Este 0 -- -- 94
2019-04-22 20:00:00 15 6 Sudeste 14 Sudeste 0 -- -- 94
2019-04-22 19:00:00 15.1 11 Este 22 Este 0 -- -- 94
2019-04-22 18:00:00 15.1 13 Este 22 Nordeste 0 -- -- 94
2019-04-22 17:00:00 15 16 Este 22 Este 0 -- -- 94
2019-04-22 16:00:00 15 12 Este 30 Este 0.2 -- -- 95
2019-04-22 15:00:00 14.6 13 Este 35 Nordeste 1 -- -- 95
2019-04-22 14:00:00 14.2 17 Nordeste 40 Este 0.6 -- -- 95
2019-04-22 13:00:00 14.3 23 Nordeste 44 Este 0.6 -- -- 94
2019-04-22 12:00:00 14.2 24 Este 46 Nordeste 0.8 -- -- 94
2019-04-22 11:00:00 14.1 23 Nordeste 40 Este 0.6 -- -- 94
2019-04-22 10:00:00 14.1 23 Nordeste 41 Este 1 -- -- 94
2019-04-22 09:00:00 14 22 Nordeste 43 Este 0.6 -- -- 94
2019-04-22 08:00:00 13.8 21 Nordeste 42 Nordeste 1 -- -- 94
2019-04-22 07:00:00 13.8 23 Nordeste 48 Nordeste 0.6 -- -- 93
2019-04-22 06:00:00 13.9 28 Nordeste 49 Este 0.8 -- -- 92
2019-04-22 05:00:00 14.1 20 Nordeste 49 Este 0.2 -- -- 89
2019-04-22 04:00:00 14.4 22 Nordeste 38 Este 0 -- -- 86
2019-04-22 03:00:00 13.9 17 Nordeste 34 Este 0.2 -- -- 89
2019-04-22 02:00:00 14.4 18 Nordeste 31 Nordeste 0 -- -- 84
2019-04-22 01:00:00 14.7 15 Nordeste 26 Este 0 -- -- 82
2019-04-22 00:00:00 15 19 Nordeste 35 Nordeste 0 -- -- 77
2019-04-21 23:00:00 14.9 19 Nordeste 34 Nordeste 0 -- -- 80
2019-04-21 22:00:00 14.9 19 Nordeste 33 Nordeste 0 -- -- 79
2019-04-21 21:00:00 15 17 Nordeste 34 Nordeste 0 -- -- 79
2019-04-21 20:00:00 14.7 21 Nordeste 54 Nordeste 0 -- -- 76
2019-04-21 19:00:00 15 24 Nordeste 56 Nordeste 0 -- -- 76
2019-04-21 18:00:00 15.2 31 Nordeste 51 Este 0 -- -- 73
2019-04-21 17:00:00 14.4 29 Este 54 Este 0 -- -- 82
2019-04-21 16:00:00 14.9 31 Este 58 Este 0 -- -- 80
2019-04-21 15:00:00 15.2 25 Este 48 Este 0 -- -- 80
2019-04-21 14:00:00 15.2 27 Este 49 Este 0 -- -- 81
2019-04-21 13:00:00 15 27 Este 47 Este 0 -- -- 83
2019-04-21 12:00:00 14.7 26 Este 54 Este 0 -- -- 85
2019-04-21 11:00:00 14.7 32 Este 53 Este 0 -- -- 83
2019-04-21 10:00:00 14.1 25 Este 48 Nordeste 0 -- -- 86
2019-04-21 09:00:00 14.3 28 Este 51 Este 0 -- -- 82
2019-04-21 08:00:00 14 25 Este 48 Este 0 -- -- 82
2019-04-21 07:00:00 14.6 23 Nordeste 48 Este 0 -- -- 75
2019-04-21 06:00:00 15 28 Este 53 Este 0 -- -- 68
2019-04-21 05:00:00 14.8 17 Nordeste 41 Este 0 -- -- 74
2019-04-21 04:00:00 15.1 20 Este 43 Este 0 -- -- 71
2019-04-21 03:00:00 15.5 27 Este 51 Este 0 -- -- 62
2019-04-21 02:00:00 15.6 20 Este 40 Sudeste 0 -- -- 61
2019-04-21 01:00:00 15.7 17 Este 44 Sudeste 0 -- -- 59
2019-04-21 00:00:00 15.9 27 Este 46 Este 0 -- -- 56
2019-04-20 23:00:00 15.7 20 Este 48 Sudeste 0 -- -- 60
2019-04-20 22:00:00 15.3 18 Este 41 Este 0 -- -- 60
2019-04-20 21:00:00 14.6 19 Nordeste 41 Nordeste 0 -- -- 81
2019-04-20 20:00:00 15.1 24 Nordeste 42 Nordeste 0 -- -- 76
2019-04-20 19:00:00 15.7 28 Nordeste 57 Nordeste 0 -- -- 72
2019-04-20 18:00:00 16.4 38 Nordeste 61 Nordeste 0 -- -- 66
2019-04-20 17:00:00 16.9 32 Nordeste 54 Nordeste 0 -- -- 65
2019-04-20 16:00:00 16.7 31 Nordeste 58 Nordeste 0 -- -- 63
2019-04-20 15:00:00 17.1 36 Nordeste 55 Nordeste 0 -- -- 61
2019-04-20 14:00:00 16.3 35 Nordeste 61 Este 0 -- -- 62
2019-04-20 13:00:00 17.5 34 Nordeste 56 Nordeste 0 -- -- 61
2019-04-20 12:00:00 16 35 Nordeste 51 Nordeste 0 -- -- 66
2019-04-20 11:00:00 15.5 25 Nordeste 52 Nordeste 0 -- -- 68
2019-04-20 10:00:00 15.6 27 Este 60 Este 0 -- -- 67
2019-04-20 09:00:00 15.7 32 Nordeste 66 Este 0 -- -- 65
2019-04-20 08:00:00 15.4 37 Nordeste 59 Nordeste 0 -- -- 64
2019-04-20 07:00:00 15.5 33 Este 61 Nordeste 0 -- -- 59
2019-04-20 06:00:00 15.5 30 Nordeste 66 Nordeste 0 -- -- 60
2019-04-20 05:00:00 15.8 40 Nordeste 58 Nordeste 0 -- -- 59
2019-04-20 04:00:00 15.6 33 Nordeste 57 Nordeste 0 -- -- 61
2019-04-20 03:00:00 15.6 37 Nordeste 60 Nordeste 0 -- -- 63
2019-04-20 02:00:00 15.5 32 Nordeste 55 Nordeste 0 -- -- 69
2019-04-20 01:00:00 15.3 26 Nordeste 57 Este 0 -- -- 73
2019-04-20 00:00:00 15.3 27 Nordeste 48 Nordeste 0 -- -- 78
2019-04-19 23:00:00 15.4 25 Nordeste 42 Este 0 -- -- 75
2019-04-19 22:00:00 15.7 18 Nordeste 37 Este 0 -- -- 75
2019-04-19 21:00:00 16 21 Nordeste 51 Este 0 -- -- 73
2019-04-19 20:00:00 16.1 29 Nordeste 50 Este 0 -- -- 72
2019-04-19 19:00:00 16.4 25 Nordeste 52 Este 0 -- -- 72
2019-04-19 18:00:00 16.6 28 Este 58 Este 0 -- -- 71
2019-04-19 17:00:00 16.8 32 Este 67 Este 0 -- -- 71
2019-04-19 16:00:00 17.9 31 Este 62 Este 0 -- -- 66
2019-04-19 15:00:00 17.7 33 Este 64 Este 0 -- -- 64
2019-04-19 14:00:00 17.8 32 Este 72 Este 0 -- -- 62
2019-04-19 13:00:00 17.9 40 Este 73 Sudeste 0 -- -- 63
2019-04-19 12:00:00 17.8 32 Este 62 Este 0 -- -- 65
2019-04-19 11:00:00 17.3 34 Este 60 Este 0 -- -- 65
2019-04-19 10:00:00 16.7 25 Este 50 Este 0 -- -- 69
2019-04-19 09:00:00 15.4 23 Este 41 Este 0 -- -- 76
2019-04-19 08:00:00 14.9 17 Este 36 Este 0 -- -- 77
2019-04-19 07:00:00 14.6 22 Este 38 Este 0 -- -- 78
2019-04-19 06:00:00 14.6 12 Este 37 Este 0 -- -- 79
2019-04-19 05:00:00 14.5 14 Este 36 Este 0 -- -- 78
2019-04-19 04:00:00 14.8 19 Este 42 Nordeste 0 -- -- 74
2019-04-19 03:00:00 14.8 15 Este 45 Este 0 -- -- 78
2019-04-19 02:00:00 15.1 21 Este 51 Este 0 -- -- 75
2019-04-19 01:00:00 15.2 17 Este 41 Este 0 -- -- 78
2019-04-19 00:00:00 15 18 Este 31 Este 0 -- -- 78
2019-04-18 23:00:00 14.9 18 Este 36 Este 0 -- -- 78
2019-04-18 22:00:00 15 17 Este 43 Este 0 -- -- 76
2019-04-18 21:00:00 14.8 19 Este 39 Nordeste 0 -- -- 77
2019-04-18 20:00:00 15.5 19 Este 48 Este 0 -- -- 72
2019-04-18 19:00:00 15.8 23 Este 53 Este 0 -- -- 69
2019-04-18 18:00:00 16 27 Este 57 Este 0 -- -- 70
2019-04-18 17:00:00 16.6 38 Este 68 Este 0 -- -- 66
2019-04-18 16:00:00 17.2 35 Este 68 Este 0 -- -- 63
2019-04-18 15:00:00 17.5 32 Este 62 Sudeste 0 -- -- 66
2019-04-18 14:00:00 17.8 26 Este 57 Este 0 -- -- 64
2019-04-18 13:00:00 17.1 37 Este 58 Este 0 -- -- 67
2019-04-18 12:00:00 17.1 25 Este 46 Este 0 -- -- 69
2019-04-18 11:00:00 15.6 26 Este 50 Este 0 -- -- 76
2019-04-18 10:00:00 15.6 25 Este 46 Este 0 -- -- 74
2019-04-18 09:00:00 15.4 18 Este 44 Este 0 -- -- 75
2019-04-18 08:00:00 14.1 20 Este 35 Este 0 -- -- 84
2019-04-18 07:00:00 13.7 20 Nordeste 36 Este 0 -- -- 85
2019-04-18 06:00:00 13.8 21 Este 42 Este 0 -- -- 85
2019-04-18 05:00:00 13.9 25 Este 41 Este 0 -- -- 78
2019-04-18 04:00:00 13.8 27 Este 42 Este 0 -- -- 77
2019-04-18 03:00:00 13.4 16 Este 33 Este 0 -- -- 83
2019-04-18 02:00:00 13.3 15 Este 36 Este 0 -- -- 85
2019-04-18 01:00:00 13.3 10 Este 29 Sudeste 0 -- -- 84
2019-04-18 00:00:00 13.4 12 Este 31 Este 0 -- -- 84
2019-04-17 23:00:00 13.5 12 Este 25 Este 0 -- -- 83
2019-04-17 22:00:00 13.4 6 Nordeste 24 Este 0 -- -- 84
2019-04-17 21:00:00 13.8 13 Este 28 Este 0 -- -- 82
2019-04-17 20:00:00 14.6 17 Este 30 Este 0 -- -- 75
2019-04-17 19:00:00 15.7 16 Este 35 Este 0 -- -- 69
2019-04-17 18:00:00 16.9 21 Este 31 Este 0 -- -- 65
2019-04-17 17:00:00 18.1 21 Este 30 Este 0 -- -- 59
2019-04-17 16:00:00 18.9 15 Este 34 Sudeste 0 -- -- 57
2019-04-17 15:00:00 19.3 17 Este 28 Este 0 -- -- 56
2019-04-17 14:00:00 20 13 Este 28 Este 0 -- -- 54
2019-04-17 13:00:00 19.1 15 Sudeste 27 Este 0 -- -- 54
2019-04-17 12:00:00 17.9 13 Sudeste 22 Este 0 -- -- 58
2019-04-17 11:00:00 17.8 13 Este 23 Este 0 -- -- 59
2019-04-17 10:00:00 16.2 13 Este 22 Este 0 -- -- 67
2019-04-17 09:00:00 14.8 9 Sudeste 15 Este 0 -- -- 79
2019-04-17 08:00:00 11 2 Sur 6 Sur 0 -- -- 92
2019-04-17 07:00:00 9.5 2 Sudoeste 5 Sudeste 0 -- -- 93
2019-04-17 06:00:00 10.5 0 Calma 5 Sudeste 0 -- -- 92
2019-04-17 05:00:00 11.7 4 Sur 7 Sur 0 -- -- 92
2019-04-17 04:00:00 11.7 5 Sur 10 Este 0 -- -- 91
2019-04-17 03:00:00 11.2 2 Sudoeste 5 Sudoeste 0 -- -- 92
2019-04-17 02:00:00 10.7 0 Calma 5 Sudoeste 0 -- -- 93
2019-04-17 01:00:00 11.2 2 Noroeste 4 Oeste 0 -- -- 90
2019-04-17 00:00:00 10.7 0 Calma 4 Norte 0 -- -- 89
2019-04-16 23:00:00 11.6 0 Calma 5 Oeste 0 -- -- 89
2019-04-16 22:00:00 11.8 0 Calma 6 Nordeste 0 -- -- 86
2019-04-16 21:00:00 13.2 5 Nordeste 13 Nordeste 0 -- -- 82
2019-04-16 20:00:00 14.3 9 Nordeste 18 Nordeste 0 -- -- 76
2019-04-16 19:00:00 15.3 12 Nordeste 20 Nordeste 0 -- -- 70
2019-04-16 18:00:00 16.1 14 Nordeste 24 Nordeste 0 -- -- 59
2019-04-16 17:00:00 16.1 17 Nordeste 27 Nordeste 0 -- -- 66
2019-04-16 16:00:00 17.4 15 Nordeste 25 Nordeste 0 -- -- 59
2019-04-16 15:00:00 17.5 15 Nordeste 25 Nordeste 0 -- -- 54
2019-04-16 14:00:00 17.6 13 Norte 26 Noroeste 0 -- -- 60
2019-04-16 13:00:00 18.3 7 Norte 18 Norte 0 -- -- 51
2019-04-16 12:00:00 18.9 7 Este 14 Este 0 -- -- 50
2019-04-16 11:00:00 16.5 5 Sudeste 12 Este 0 -- -- 62
2019-04-16 10:00:00 14.1 3 Este 40 Este 0 -- -- 81
2019-04-16 09:00:00 12.9 18 Este 27 Este 0 -- -- 84
2019-04-16 08:00:00 12.5 4 Sur 10 Sur 0 -- -- 83
2019-04-16 07:00:00 10.9 4 Sudoeste 6 Sur 0 -- -- 89
2019-04-16 06:00:00 10.2 2 Este 6 Este 0 -- -- 88
2019-04-16 05:00:00 10.1 0 Calma 6 Norte 0 -- -- 86
2019-04-16 04:00:00 11.3 4 Sur 10 Sur 0 -- -- 82
2019-04-16 03:00:00 11.6 8 Sur 19 Sudeste 0 -- -- 81
2019-04-16 02:00:00 11.7 13 Sur 20 Sur 0 -- -- 79
2019-04-16 01:00:00 11.9 8 Sur 17 Sur 0 -- -- 76
2019-04-16 00:00:00 12.4 10 Sur 32 Sudeste 0 -- -- 73
2019-04-15 23:00:00 12.6 12 Sudeste 21 Sudeste 0 -- -- 70
2019-04-15 22:00:00 12.7 3 Sudeste 25 Este 0 -- -- 69
2019-04-15 21:00:00 13.1 9 Este 23 Este 0 -- -- 70
2019-04-15 20:00:00 13.7 12 Sudeste 24 Sudeste 0 -- -- 65
2019-04-15 19:00:00 14.4 12 Sudeste 23 Sudeste 0 -- -- 60
2019-04-15 18:00:00 15.1 14 Sudeste 25 Este 0 -- -- 56
2019-04-15 17:00:00 16.2 11 Sudeste 24 Este 0 -- -- 50
2019-04-15 16:00:00 16.9 17 Nordeste 27 Nordeste 0 -- -- 48
2019-04-15 15:00:00 17.8 14 Nordeste 23 Nordeste 0 -- -- 39
2019-04-15 14:00:00 17.4 12 Nordeste 22 Nordeste 0 -- -- 33
2019-04-15 13:00:00 17.7 10 Nordeste 24 Nordeste 0 -- -- 27
2019-04-15 12:00:00 16.6 15 Nordeste 24 Este 0 -- -- 32
2019-04-15 11:00:00 16.1 13 Nordeste 23 Nordeste 0 -- -- 38
2019-04-15 10:00:00 15.2 13 Nordeste 24 Nordeste 0 -- -- 56
2019-04-15 09:00:00 13.6 5 Nordeste 9 Nordeste 0 -- -- 64
2019-04-15 08:00:00 10.4 0 Calma 3 Nordeste 0 -- -- 75
2019-04-15 07:00:00 10 0 Calma 3 Sudoeste 0 -- -- 75
2019-04-15 06:00:00 9.9 0 Calma 4 Nordeste 0 -- -- 72
2019-04-15 05:00:00 10.5 0 Calma 11 Norte 0 -- -- 69
2019-04-15 04:00:00 10.3 8 Norte 10 Norte 0 -- -- 67
2019-04-15 03:00:00 11.3 6 Norte 9 Norte 0 -- -- 59
2019-04-15 02:00:00 11.2 5 Nordeste 6 Nordeste 0 -- -- 57
2019-04-15 01:00:00 10.6 2 Norte 4 Nordeste 0 -- -- 63
2019-04-15 00:00:00 11.2 2 Noroeste 7 Sudeste 0 -- -- 65
2019-04-14 23:00:00 11.9 5 Sur 8 Sur 0 -- -- 65
2019-04-14 22:00:00 12.5 3 Sur 8 Este 0 -- -- 56
2019-04-14 21:00:00 13.3 4 Nordeste 11 Nordeste 0 -- -- 65
2019-04-14 20:00:00 14.9 8 Nordeste 13 Nordeste 0 -- -- 71
2019-04-14 19:00:00 15.6 8 Nordeste 17 Nordeste 0 -- -- 60
2019-04-14 18:00:00 16.7 10 Nordeste 18 Norte 0 -- -- 66
2019-04-14 17:00:00 17.5 11 Nordeste 21 Nordeste 0 -- -- 62
2019-04-14 16:00:00 18.2 11 Norte 21 Nordeste 0 -- -- 56
2019-04-14 15:00:00 18.4 13 Norte 22 Norte 0 -- -- 58
2019-04-14 14:00:00 18.1 16 Norte 26 Norte 0 -- -- 58
2019-04-14 13:00:00 17.9 15 Norte 21 Norte 0 -- -- 63
2019-04-14 12:00:00 17.5 11 Oeste 18 Sudoeste 0 -- -- 62
2019-04-14 11:00:00 15.8 10 Sudoeste 22 Sudoeste 0 -- -- 74
2019-04-14 10:00:00 14.8 14 Sur 22 Sur 0 -- -- 81
2019-04-14 09:00:00 13.2 15 Sur 22 Sur 0 -- -- 93
2019-04-14 08:00:00 11.3 8 Sur 14 Sur 0 -- -- 95
2019-04-14 07:00:00 11.3 4 Sur 6 Sur 0 -- -- 93
2019-04-14 06:00:00 11.5 3 Sur 12 Sudoeste 0 -- -- 93
2019-04-14 05:00:00 11.3 7 Sudoeste 13 Sudoeste 0 -- -- 92
2019-04-14 04:00:00 11.4 10 Sur 12 Sur 0 -- -- 91
2019-04-14 03:00:00 11.7 10 Sur 12 Sur 0 -- -- 89
2019-04-14 02:00:00 11.7 9 Sur 12 Sur 0 -- -- 89
2019-04-14 01:00:00 11.7 11 Sudoeste 15 Sudoeste 0 -- -- 86
2019-04-14 00:00:00 11.5 8 Sudoeste 16 Sur 0 -- -- 83
2019-04-13 23:00:00 11.4 5 Sur 11 Sudoeste 0 -- -- 71
2019-04-13 22:00:00 11.8 2 Sur 4 Sudeste 0 -- -- 79
2019-04-13 21:00:00 12.8 0 Calma 9 Sudoeste 0 -- -- 71
2019-04-13 20:00:00 14.7 8 Sudoeste 21 Sur 0 -- -- 68
2019-04-13 19:00:00 16.6 12 Sudoeste 22 Sudoeste 0 -- -- 58
2019-04-13 18:00:00 17.6 15 Sudoeste 25 Sudoeste 0 -- -- 52
2019-04-13 17:00:00 17.2 18 Sudoeste 32 Sudoeste 0 -- -- 51
2019-04-13 16:00:00 17.9 19 Sudoeste 35 Oeste 0 -- -- 42
2019-04-13 15:00:00 18.1 22 Sudoeste 37 Sudoeste 0 -- -- 44
2019-04-13 14:00:00 17.5 16 Sudoeste 27 Sudoeste 0 -- -- 44
2019-04-13 13:00:00 17.5 13 Oeste 28 Sudoeste 0 -- -- 47
2019-04-13 12:00:00 16.6 12 Oeste 21 Oeste 0 -- -- 54
2019-04-13 11:00:00 16.7 6 Norte 18 Noroeste 0 -- -- 49
2019-04-13 10:00:00 15 12 Norte 27 Norte 0 -- -- 51
2019-04-13 09:00:00 13.6 8 Norte 16 Norte 0 -- -- 62
2019-04-13 08:00:00 11.8 4 Norte 10 Oeste 0 -- -- 78
2019-04-13 07:00:00 10.5 5 Oeste 14 Oeste 0 -- -- 84
2019-04-13 06:00:00 10.3 9 Oeste 24 Oeste 0 -- -- 84
2019-04-13 05:00:00 11.1 16 Oeste 26 Oeste 0 -- -- 82
2019-04-13 04:00:00 11.3 17 Oeste 29 Oeste 0 -- -- 79
2019-04-13 03:00:00 11 12 Sudoeste 21 Oeste 0 -- -- 80
2019-04-13 02:00:00 11.1 13 Sudoeste 21 Sudoeste 0 -- -- 77
2019-04-13 01:00:00 10.2 9 Sudoeste 17 Sudoeste 0 -- -- 75
2019-04-13 00:00:00 9.5 7 Sudoeste 9 Sur 0 -- -- 74
2019-04-12 23:00:00 9.1 3 Sudoeste 12 Nordeste 0 -- -- 73
2019-04-12 22:00:00 10.5 6 Nordeste 13 Nordeste 0 -- -- 69
2019-04-12 21:00:00 11.7 6 Oeste 9 Noroeste 0 -- -- 66
2019-04-12 20:00:00 13.1 5 Noroeste 16 Norte 0 -- -- 59
2019-04-12 19:00:00 13.7 15 Norte 23 Norte 0 -- -- 53
2019-04-12 18:00:00 14 15 Norte 30 Norte 0 -- -- 53
2019-04-12 17:00:00 14.5 20 Norte 33 Nordeste 0 -- -- 51
2019-04-12 16:00:00 14.5 21 Norte 41 Norte 0 -- -- 50
2019-04-12 15:00:00 14.5 25 Norte 43 Norte 0 -- -- 50
2019-04-12 14:00:00 13.6 21 Norte 50 Norte 0 -- -- 56
2019-04-12 13:00:00 13.5 26 Norte 59 Norte 0 -- -- 52
2019-04-12 12:00:00 14.2 30 Norte 58 Norte 0 -- -- 54
2019-04-12 11:00:00 14.2 36 Norte 55 Norte 0 -- -- 54
2019-04-12 10:00:00 13.7 32 Norte 49 Norte 0 -- -- 58
2019-04-12 09:00:00 13 20 Norte 38 Norte 0 -- -- 71
2019-04-12 08:00:00 12.8 25 Norte 41 Norte 0 -- -- 69
2019-04-12 07:00:00 12.5 17 Norte 32 Norte 0 -- -- 76
2019-04-12 06:00:00 11.8 13 Norte 31 Norte 0 -- -- 82
2019-04-12 05:00:00 12.2 12 Noroeste 28 Noroeste 0.2 -- -- 77
2019-04-12 04:00:00 11.8 8 Noroeste 19 Noroeste 0 -- -- 80
2019-04-12 03:00:00 10.9 12 Oeste 39 Oeste 2.6 -- -- 82
2019-04-12 02:00:00 11.4 18 Nordeste 37 Nordeste 0.2 -- -- 78
2019-04-12 01:00:00 13 11 Noroeste 40 Noroeste 0 -- -- 81
2019-04-12 00:00:00 13.4 7 Noroeste 17 Noroeste 0 -- -- 68
2019-04-11 23:00:00 12.9 7 Noroeste 23 Oeste 0 -- -- 71
2019-04-11 22:00:00 12.7 10 Oeste 15 Oeste 0 -- -- 76
2019-04-11 21:00:00 13 2 Oeste 9 Oeste 0 -- -- 69
2019-04-11 20:00:00 13.5 4 Oeste 17 Oeste 0 -- -- 62
2019-04-11 19:00:00 14.6 13 Oeste 17 Oeste 0 -- -- 56
2019-04-11 18:00:00 15.8 10 Norte 21 Norte 0 -- -- 59
2019-04-11 17:00:00 15.6 11 Norte 26 Noroeste 0 -- -- 53
2019-04-11 16:00:00 16.6 18 Norte 30 Norte 0 -- -- 44
2019-04-11 15:00:00 16.2 19 Norte 31 Noroeste 0 -- -- 46
2019-04-11 14:00:00 16.9 21 Norte 34 Noroeste 0 -- -- 52
2019-04-11 13:00:00 15.6 22 Noroeste 51 Norte 0 -- -- 51
2019-04-11 12:00:00 16.1 35 Norte 54 Norte 0 -- -- 46
2019-04-11 11:00:00 15.6 31 Norte 51 Norte 0 -- -- 50
2019-04-11 10:00:00 15 30 Norte 44 Norte 0 -- -- 54
2019-04-11 09:00:00 14 22 Norte 33 Nordeste 0 -- -- 61
2019-04-11 08:00:00 12 8 Noroeste 18 Oeste 0 -- -- 76
2019-04-11 07:00:00 11.1 9 Noroeste 20 Oeste 0 -- -- 81
2019-04-11 06:00:00 11.7 12 Noroeste 30 Norte 0.2 -- -- 74
2019-04-11 05:00:00 13.5 14 Noroeste 26 Noroeste 0 -- -- 75
2019-04-11 04:00:00 12.9 11 Oeste 20 Oeste 0 -- -- 76
2019-04-11 03:00:00 12.9 16 Oeste 28 Oeste 0 -- -- 80
2019-04-11 02:00:00 12.4 12 Oeste 18 Oeste 0 -- -- 80
2019-04-11 01:00:00 12.1 10 Oeste 23 Oeste 0 -- -- 82
2019-04-11 00:00:00 11.8 10 Oeste 18 Sudoeste 0 -- -- 81
2019-04-10 23:00:00 11.3 4 Sur 11 Oeste 0 -- -- 82
2019-04-10 22:00:00 11.6 5 Sudoeste 9 Oeste 0 -- -- 82
2019-04-10 21:00:00 12.1 5 Oeste 14 Noroeste 0 -- -- 81
2019-04-10 20:00:00 13.5 8 Oeste 22 Noroeste 0 -- -- 73
2019-04-10 19:00:00 15.7 9 Noroeste 16 Noroeste 0 -- -- 54
2019-04-10 18:00:00 15.9 13 Norte 24 Noroeste 0 -- -- 45
2019-04-10 17:00:00 17.3 14 Noroeste 32 Noroeste 0 -- -- 52
2019-04-10 16:00:00 15.8 18 Noroeste 29 Noroeste 0 -- -- 63
2019-04-10 15:00:00 16.5 15 Noroeste 32 Noroeste 0 -- -- 48
2019-04-10 14:00:00 15.8 18 Noroeste 32 Noroeste 0 -- -- 49
2019-04-10 13:00:00 16.1 15 Norte 30 Noroeste 0 -- -- 55
2019-04-10 12:00:00 14.9 16 Noroeste 37 Oeste 0 -- -- 60
2019-04-10 11:00:00 15.2 19 Noroeste 35 Oeste 0.2 -- -- 65
2019-04-10 10:00:00 14.2 17 Noroeste 32 Noroeste 0 -- -- 71
2019-04-10 09:00:00 13 8 Noroeste 14 Oeste 0 -- -- 85
2019-04-10 08:00:00 10.2 7 Oeste 9 Oeste 0 -- -- 86
2019-04-10 07:00:00 10.6 5 Sur 8 Sudoeste 0 -- -- 81
2019-04-10 06:00:00 10.5 4 Sur 9 Sudoeste 0 -- -- 84
2019-04-10 05:00:00 10.5 5 Sudoeste 9 Sudoeste 0 -- -- 88
2019-04-10 04:00:00 10.7 3 Sur 12 Sur 0 -- -- 88
2019-04-10 03:00:00 11.1 5 Sudoeste 12 Sudoeste 0 -- -- 83
2019-04-10 02:00:00 11.3 10 Sudoeste 14 Sudoeste 0 -- -- 82
2019-04-10 01:00:00 11.2 8 Sudoeste 18 Sudoeste 0 -- -- 78
2019-04-10 00:00:00 11.8 12 Sur 15 Sudoeste 0 -- -- 74
2019-04-09 23:00:00 11.7 6 Sudoeste 13 Sudoeste 0 -- -- 73
2019-04-09 22:00:00 11.8 3 Sudoeste 16 Noroeste 0 -- -- 70
2019-04-09 21:00:00 12.3 4 Oeste 22 Oeste -- -- -- 71
2019-04-09 20:00:00 13.8 19 Noroeste 28 Oeste 0 -- -- 67
2019-04-09 19:00:00 15.3 17 Oeste 33 Oeste 0 -- -- 63
2019-04-09 18:00:00 16.7 19 Oeste 32 Oeste 0 -- -- 58
2019-04-09 17:00:00 16.7 15 Noroeste 31 Oeste 0 -- -- 58
2019-04-09 16:00:00 17.3 16 Oeste 30 Oeste 0 -- -- 56
2019-04-09 15:00:00 15.6 8 Norte 23 Nordeste 0 -- -- 63
2019-04-09 14:00:00 16.3 11 Nordeste 22 Norte 0 -- -- 57
2019-04-09 13:00:00 15.4 15 Norte 42 Norte 0 -- -- 58
2019-04-09 12:00:00 14.8 22 Norte 53 Noroeste 0 -- -- 65
2019-04-09 11:00:00 15.5 34 Oeste 53 Oeste 0 -- -- 66
2019-04-09 10:00:00 15.5 27 Sudoeste 41 Sudoeste 0 -- -- 77
2019-04-09 09:00:00 14.5 18 Sudoeste 36 Sur 0 -- -- 91
2019-04-09 08:00:00 13.5 20 Sur 29 Sur 0 -- -- 93
2019-04-09 07:00:00 12.8 8 Sur 17 Sudoeste 0 -- -- 91
2019-04-09 06:00:00 11.9 5 Sur 13 Sudeste 0 -- -- 79
2019-04-09 05:00:00 11.7 8 Sur 13 Sur 0 -- -- 84
2019-04-09 04:00:00 11.9 8 Sur 13 Sur 0 -- -- 84
2019-04-09 03:00:00 12.7 8 Sur 12 Sur 0 -- -- 78
2019-04-09 02:00:00 12.3 9 Sudoeste 12 Sur 0 -- -- 80
2019-04-09 01:00:00 12.6 5 Sudoeste 10 Sudoeste 0 -- -- 78
2019-04-09 00:00:00 12.5 7 Sudoeste 14 Oeste 0 -- -- 80
2019-04-08 23:00:00 13.1 11 Oeste 20 Oeste 0 -- -- 75
2019-04-08 22:00:00 12.8 2 Sur 15 Sudoeste 0 -- -- 74
2019-04-08 21:00:00 14 4 Oeste 16 Oeste 0 -- -- 68
2019-04-08 20:00:00 15.6 9 Oeste 21 Sudoeste 0 -- -- 62
2019-04-08 19:00:00 17.2 16 Oeste 29 Oeste 0 -- -- 55
2019-04-08 18:00:00 16.7 17 Sudoeste 31 Oeste 0 -- -- 59
2019-04-08 17:00:00 17.5 19 Oeste 28 Oeste 0 -- -- 56
2019-04-08 16:00:00 17 9 Sur 39 Sudoeste 0 -- -- 64
2019-04-08 15:00:00 17.8 23 Sudoeste 36 Sudoeste 0 -- -- 56
2019-04-08 14:00:00 17.9 22 Sur 34 Sudoeste 0 -- -- 59
2019-04-08 13:00:00 16.4 22 Sudoeste 37 Sur 0 -- -- 70
2019-04-08 12:00:00 15.7 24 Sur 36 Sudoeste 0 -- -- 72
2019-04-08 11:00:00 15.5 20 Sur 38 Sudoeste 0 -- -- 72
2019-04-08 10:00:00 14.6 18 Sur 26 Sur 0 -- -- 73
2019-04-08 09:00:00 12.6 14 Sur 21 Sur 0 -- -- 76
2019-04-08 08:00:00 11.1 14 Sudoeste 19 Sur 0 -- -- 77
2019-04-08 07:00:00 10.5 12 Sudoeste 19 Sudoeste 0 -- -- 79
2019-04-08 06:00:00 9.4 12 Sur 15 Sur 0 -- -- 81
2019-04-08 05:00:00 9.2 9 Sur 14 Sudoeste 0 -- -- 83
2019-04-08 04:00:00 9.2 9 Sudoeste 17 Sudoeste 0 -- -- 79
2019-04-08 03:00:00 9.7 11 Sudoeste 14 Sudoeste 0 -- -- 80
2019-04-08 02:00:00 8.9 6 Sudoeste 10 Sudoeste 0 -- -- 84
2019-04-08 01:00:00 9.5 0 Calma 13 Oeste 0 -- -- 82
2019-04-08 00:00:00 9.2 6 Oeste 14 Noroeste 0 -- -- 82
2019-04-07 23:00:00 9.5 7 Oeste 16 Noroeste 0 -- -- 79
2019-04-07 22:00:00 10.9 9 Noroeste 18 Noroeste 0 -- -- 73
2019-04-07 21:00:00 10.3 8 Oeste 12 Oeste 0 -- -- 79
2019-04-07 20:00:00 11.7 7 Oeste 18 Noroeste 0 -- -- 69
2019-04-07 19:00:00 13.5 10 Noroeste 17 Noroeste 0 -- -- 56
2019-04-07 18:00:00 12.6 12 Norte 30 Noroeste 0 -- -- 63
2019-04-07 17:00:00 12.3 10 Noroeste 36 Noroeste 0 -- -- 66
2019-04-07 16:00:00 14.2 26 Noroeste 44 Noroeste 0 -- -- 57
2019-04-07 15:00:00 13.5 23 Noroeste 44 Noroeste 0 -- -- 60
2019-04-07 14:00:00 13.7 19 Noroeste 40 Noroeste 0 -- -- 59
2019-04-07 13:00:00 13.7 20 Noroeste 34 Noroeste 0 -- -- 58
2019-04-07 12:00:00 12.6 14 Oeste 27 Noroeste 0 -- -- 66
2019-04-07 11:00:00 12.1 12 Noroeste 23 Oeste 0 -- -- 74
2019-04-07 10:00:00 12.7 16 Sudoeste 28 Sudoeste 0 -- -- 72
2019-04-07 09:00:00 11.1 10 Sudoeste 16 Oeste 0 -- -- 76
2019-04-07 08:00:00 9.1 0 Calma 7 Sudoeste 0 -- -- 83
2019-04-07 07:00:00 8.9 3 Sudoeste 10 Sur 0 -- -- 84
2019-04-07 06:00:00 9.4 5 Sudoeste 8 Sudoeste 0 -- -- 81
2019-04-07 05:00:00 10.1 5 Sudoeste 14 Sudoeste 0 -- -- 77
2019-04-07 04:00:00 10.4 11 Sudoeste 17 Sudoeste 0 -- -- 76
2019-04-07 03:00:00 11 12 Sudoeste 17 Sudoeste 0 -- -- 73
2019-04-07 02:00:00 11.2 9 Sur 17 Sudoeste 0 -- -- 71
2019-04-07 01:00:00 11.9 11 Sudoeste 19 Sudoeste 0 -- -- 67
2019-04-07 00:00:00 12 14 Sudoeste 23 Sudoeste 0 -- -- 67
2019-04-06 23:00:00 11.9 15 Sudoeste 28 Sudoeste 0 -- -- 67
2019-04-06 22:00:00 12.3 19 Sudoeste 31 Sudoeste 0 -- -- 64
2019-04-06 21:00:00 12.1 13 Sudoeste 30 Sudoeste 0 -- -- 57
2019-04-06 20:00:00 13 23 Sudoeste 33 Sudoeste 0 -- -- 51
2019-04-06 19:00:00 14.8 17 Sudoeste 38 Sudoeste 0 -- -- 51
2019-04-06 18:00:00 14.4 25 Sudoeste 40 Sudoeste 0 -- -- 53
2019-04-06 17:00:00 14.8 24 Sudoeste 39 Sudoeste 0 -- -- 53
2019-04-06 16:00:00 15.5 25 Sudoeste 40 Sudoeste 0 -- -- 52
2019-04-06 15:00:00 15.4 21 Sudoeste 41 Sudoeste 0 -- -- 49
2019-04-06 14:00:00 14.3 19 Sudoeste 35 Sudoeste 0 -- -- 55
2019-04-06 13:00:00 14.3 18 Sudoeste 32 Sudoeste 0 -- -- 60
2019-04-06 12:00:00 13.3 15 Sudoeste 31 Sudoeste 0 -- -- 64
2019-04-06 11:00:00 12.4 19 Sudoeste 38 Sudoeste 0 -- -- 67
2019-04-06 10:00:00 12 21 Sudoeste 37 Sudoeste 0 -- -- 68
2019-04-06 09:00:00 11.2 21 Sudoeste 38 Sudoeste 0 -- -- 67
2019-04-06 08:00:00 10.9 20 Sudoeste 37 Sudoeste 0 -- -- 69
2019-04-06 07:00:00 10.8 29 Sudoeste 53 Sudoeste 0 -- -- 74
2019-04-06 06:00:00 11.2 23 Sur 34 Sur 0 -- -- 87
2019-04-06 05:00:00 10.9 15 Sur 46 Sudoeste 1.4 -- -- 86
2019-04-06 04:00:00 12.9 26 Sudoeste 46 Sudoeste 0 -- -- 76
2019-04-06 03:00:00 13.5 35 Sudoeste 55 Sudoeste 0 -- -- 74
2019-04-06 02:00:00 13.7 26 Sur 40 Sur 0 -- -- 79
2019-04-06 01:00:00 13.3 22 Sur 37 Sur 0 -- -- 83
2019-04-06 00:00:00 12.8 14 Sur 40 Sur 0.2 -- -- 89
2019-04-05 23:00:00 14.1 24 Sur 35 Sur 0 -- -- 78
2019-04-05 22:00:00 13.8 20 Sur 35 Sur 0 -- -- 81
2019-04-05 21:00:00 13.9 19 Sur 36 Sudeste 0 -- -- 77
2019-04-05 20:00:00 13.7 22 Sur 45 Sur 0 -- -- 73
2019-04-05 19:00:00 14.2 25 Sur 47 Sur 0 -- -- 69
2019-04-05 18:00:00 15 26 Sur 50 Sur 0 -- -- 61
2019-04-05 17:00:00 15.2 25 Sur 45 Sur 0 -- -- 60
2019-04-05 16:00:00 15.2 27 Sur 45 Sur 0 -- -- 59
2019-04-05 15:00:00 15.9 27 Sur 42 Sur 0 -- -- 56
2019-04-05 14:00:00 15.1 30 Sur 45 Sudoeste 0 -- -- 53
2019-04-05 13:00:00 15.3 24 Sur 36 Sudoeste 0 -- -- 49
2019-04-05 12:00:00 15.2 22 Sudoeste 38 Sudoeste 0 -- -- 51
2019-04-05 11:00:00 14 20 Sudoeste 35 Sur 0 -- -- 51
2019-04-05 10:00:00 13.2 16 Sur 27 Sur 0 -- -- 59
2019-04-05 09:00:00 11.6 9 Sudoeste 17 Sur 0 -- -- 70
2019-04-05 08:00:00 8.4 4 Sudoeste 13 Sur 0 -- -- 75
2019-04-05 07:00:00 7.8 10 Sudoeste 12 Sur 0 -- -- 78
2019-04-05 06:00:00 7.9 9 Sur 14 Sur 0 -- -- 82
2019-04-05 05:00:00 8.3 12 Sur 17 Sur 0 -- -- 77
2019-04-05 04:00:00 8.1 12 Sur 15 Sur 0 -- -- 77
2019-04-05 03:00:00 7.1 10 Sudoeste 14 Sur 0 -- -- 76
2019-04-05 02:00:00 5.6 4 Sudoeste 7 Sur 0 -- -- 76
2019-04-05 01:00:00 5.3 2 Sur 6 Sur 0 -- -- 79
2019-04-05 00:00:00 4.9 3 Oeste 8 Sur 0 -- -- 77
2019-04-04 23:00:00 6.5 7 Sudoeste 10 Sur 0 -- -- 71
2019-04-04 22:00:00 6.4 5 Sudoeste 9 Sudeste 0 -- -- 73
2019-04-04 21:00:00 7.3 5 Noroeste 8 Noroeste 0 -- -- 71
2019-04-04 20:00:00 10.2 4 Noroeste 18 Noroeste 0 -- -- 58
2019-04-04 19:00:00 11.4 14 Norte 22 Norte 0 -- -- 55
2019-04-04 18:00:00 12.6 11 Noroeste 25 Noroeste 0 -- -- 49
2019-04-04 17:00:00 13.2 12 Noroeste 26 Oeste 0 -- -- 46
2019-04-04 16:00:00 14.2 13 Oeste 30 Oeste 0 -- -- 39
2019-04-04 15:00:00 13.1 12 Noroeste 29 Oeste 0 -- -- 52
2019-04-04 14:00:00 12.9 13 Norte 21 Norte 0 -- -- 60
2019-04-04 13:00:00 13 13 Sudoeste 21 Sudoeste 0 -- -- 61
2019-04-04 12:00:00 11.5 13 Norte 19 Norte 0 -- -- 65
2019-04-04 11:00:00 10.9 9 Norte 18 Noroeste 0 -- -- 67
2019-04-04 10:00:00 10.5 8 Norte 15 Norte 0 -- -- 75
2019-04-04 09:00:00 9.4 8 Norte 13 Norte 0 -- -- 83
2019-04-04 08:00:00 8.9 9 Norte 16 Norte 0 -- -- 84
2019-04-04 07:00:00 9.1 7 Norte 21 Norte 0 -- -- 85
2019-04-04 06:00:00 9.1 11 Norte 21 Norte 0 -- -- 84
2019-04-04 05:00:00 9.1 12 Norte 24 Norte 0.2 -- -- 86
2019-04-04 04:00:00 9.3 15 Norte 30 Norte 0 -- -- 87
2019-04-04 03:00:00 8.9 21 Norte 36 Norte 1.2 -- -- 89
2019-04-04 02:00:00 9.8 22 Norte 36 Norte 0.2 -- -- 89
2019-04-04 01:00:00 11.5 18 Norte 44 Noroeste 0 -- -- 86
2019-04-04 00:00:00 14.3 13 Sudoeste 32 Sudoeste 0 -- -- 88
2019-04-03 23:00:00 14.4 21 Sudoeste 34 Sudoeste 0 -- -- 86
2019-04-03 22:00:00 14.4 16 Sur 31 Sur 0 -- -- 85
2019-04-03 21:00:00 14.4 19 Sur 34 Sur 0 -- -- 84
2019-04-03 20:00:00 14.4 21 Sur 32 Sur 0 -- -- 83
2019-04-03 19:00:00 15 22 Sur 43 Sur 0 -- -- 79
2019-04-03 18:00:00 15.7 30 Sur 48 Sur 0 -- -- 76
2019-04-03 17:00:00 15.7 35 Sur 57 Sur 0 -- -- 77
2019-04-03 16:00:00 16.2 37 Sur 55 Sudoeste 0 -- -- 74
2019-04-03 15:00:00 16.1 40 Sur 54 Sur 0 -- -- 73
2019-04-03 14:00:00 16.9 30 Sur 46 Sur 0 -- -- 69
2019-04-03 13:00:00 16.2 29 Sur 45 Sur 0 -- -- 75
2019-04-03 12:00:00 16 27 Sudoeste 46 Sudoeste 0 -- -- 76
2019-04-03 11:00:00 15 23 Sur 35 Sur 0 -- -- 75
2019-04-03 10:00:00 14.6 21 Sur 33 Sur 0 -- -- 80
2019-04-03 09:00:00 13.6 15 Sudoeste 22 Sur 0 -- -- 90
2019-04-03 08:00:00 12.7 10 Sudoeste 20 Sudoeste 0 -- -- 92
2019-04-03 07:00:00 12.7 14 Sudoeste 21 Sudoeste 0 -- -- 92
2019-04-03 06:00:00 12.6 12 Sudoeste 20 Sur 0 -- -- 92
2019-04-03 05:00:00 12.4 14 Sudoeste 20 Sudoeste 0 -- -- 92
2019-04-03 04:00:00 12.4 12 Sur 16 Sur 0 -- -- 91
2019-04-03 03:00:00 13 2 Este 23 Sudoeste 0 -- -- 89
2019-04-03 02:00:00 13.2 17 Sudoeste 26 Sudoeste 0 -- -- 89
2019-04-03 01:00:00 13 12 Sur 20 Sur 0 -- -- 90
2019-04-03 00:00:00 13.9 11 Sur 21 Sur 0 -- -- 87
2019-04-02 23:00:00 13.7 12 Sur 20 Sur 0 -- -- 87
2019-04-02 22:00:00 13.2 9 Sur 15 Sur 0 -- -- 87
2019-04-02 21:00:00 13.5 10 Sur 17 Sur 0 -- -- 85
2019-04-02 20:00:00 14.3 6 Sur 17 Sur 0 -- -- 79
2019-04-02 19:00:00 15.7 12 Sur 22 Sudoeste 0 -- -- 73
2019-04-02 18:00:00 16.6 14 Sudoeste 23 Sudoeste 0 -- -- 64
2019-04-02 17:00:00 17.2 17 Sur 28 Sur 0 -- -- 65
2019-04-02 16:00:00 17.5 19 Sur 27 Sur 0 -- -- 59
2019-04-02 15:00:00 18.2 15 Sur 23 Sur 0 -- -- 46
2019-04-02 14:00:00 17.9 14 Sur 32 Sudoeste 0 -- -- 49
2019-04-02 13:00:00 16.8 19 Sudoeste 28 Sudoeste 0 -- -- 53
2019-04-02 12:00:00 16.5 17 Sudoeste 25 Sudoeste 0 -- -- 52
2019-04-02 11:00:00 16.2 9 Sudoeste 17 Sur 0 -- -- 56
2019-04-02 10:00:00 14.6 7 Sur 10 Sur 0 -- -- 69
2019-04-02 09:00:00 12.6 3 Sudoeste 8 Sur 0 -- -- 78
2019-04-02 08:00:00 8.8 3 Sur 5 Sudoeste 0 -- -- 89
2019-04-02 07:00:00 8 0 Calma 3 Oeste 0 -- -- 89
2019-04-02 06:00:00 8.3 0 Calma 6 Sur 0 -- -- 93
2019-04-02 05:00:00 9.7 2 Sudoeste 4 Sudoeste 0 -- -- 94
2019-04-02 04:00:00 9.3 3 Sudoeste 5 Sudoeste 0 -- -- 94
2019-04-02 03:00:00 10.2 0 Calma 8 Sudoeste 0 -- -- 93
2019-04-02 02:00:00 10.8 0 Calma 4 Sudoeste 0 -- -- 91
2019-04-02 01:00:00 10.5 2 Sudoeste 5 Sudoeste 0 -- -- 93
2019-04-02 00:00:00 10.2 3 Oeste -- -- 0 -- -- 91
2019-04-01 23:00:00 10.5 3 Oeste 4 Oeste 0 -- -- 90
2019-04-01 22:00:00 11.6 0 Calma 3 Oeste 0 -- -- 88
2019-04-01 21:00:00 12.1 3 Oeste 6 Norte 0 -- -- 85
2019-04-01 20:00:00 13.2 4 Norte 8 Norte 0 -- -- 81
2019-04-01 19:00:00 14.4 6 Norte 10 Norte 0 -- -- 73
2019-04-01 18:00:00 14.8 5 Nordeste 13 Nordeste 0 -- -- 73
2019-04-01 17:00:00 14.5 8 Nordeste 15 Norte 0 -- -- 71
2019-04-01 16:00:00 14.6 10 Nordeste 19 Nordeste 0 -- -- 69
2019-04-01 15:00:00 14.5 13 Nordeste 24 Nordeste 0 -- -- 70
2019-04-01 14:00:00 15.2 15 Nordeste 25 Este 0 -- -- 62
2019-04-01 13:00:00 15.5 17 Nordeste 26 Nordeste 0 -- -- 59
2019-04-01 12:00:00 16.2 17 Nordeste 27 Nordeste 0 -- -- 57
2019-04-01 11:00:00 14.9 17 Nordeste 25 Nordeste 0 -- -- 64
2019-04-01 10:00:00 14 17 Nordeste 25 Nordeste 0 -- -- 69
2019-04-01 09:00:00 12.9 12 Nordeste 17 Nordeste 0 -- -- 77
2019-04-01 08:00:00 11.5 4 Nordeste 10 Norte 0 -- -- 80
2019-04-01 07:00:00 12 6 Nordeste 11 Nordeste 0 -- -- 77
2019-04-01 06:00:00 12.3 7 Nordeste 17 Nordeste 0 -- -- 76
2019-04-01 05:00:00 12.3 7 Nordeste 22 Nordeste 0 -- -- 76
2019-04-01 04:00:00 12.4 13 Nordeste 24 Nordeste 0 -- -- 78
2019-04-01 03:00:00 12.6 18 Nordeste 28 Este 0 -- -- 72
2019-04-01 02:00:00 12.4 14 Nordeste 27 Este 0 -- -- 73
2019-04-01 01:00:00 12.7 14 Este 24 Nordeste 0 -- -- 75
2019-04-01 00:00:00 12.8 15 Este 24 Este 0 -- -- 78
2019-03-31 23:00:00 12.7 13 Nordeste 18 Nordeste 0 -- -- 82
2019-03-31 22:00:00 12.9 12 Este 24 Nordeste 0 -- -- 84
2019-03-31 21:00:00 13.1 12 Este 28 Este 0 -- -- 82
2019-03-31 20:00:00 13.4 14 Este 34 Este 0 -- -- 81
2019-03-31 19:00:00 13.9 17 Este 36 Este 0 -- -- 76
2019-03-31 18:00:00 14.5 22 Este 38 Este 0 -- -- 74
2019-03-31 17:00:00 15.1 18 Este 43 Este 0 -- -- 70
2019-03-31 16:00:00 16.6 26 Este 45 Sudeste 0 -- -- 63
2019-03-31 15:00:00 16.3 22 Sudeste 42 Este 0 -- -- 63
2019-03-31 14:00:00 15.9 26 Este 45 Este 0 -- -- 60
2019-03-31 13:00:00 16.2 29 Este 46 Este 0 -- -- 62
2019-03-31 12:00:00 15.7 31 Este 44 Este 0 -- -- 67
2019-03-31 11:00:00 15.7 26 Este 42 Este 0 -- -- 64
2019-03-31 10:00:00 14.7 29 Este 42 Este 0 -- -- 69
2019-03-31 09:00:00 13.7 17 Este 32 Este 0 -- -- 75
2019-03-31 08:00:00 12.4 16 Este 32 Este 0 -- -- 83
2019-03-31 07:00:00 11.6 6 Nordeste 19 Este 0 -- -- 88
2019-03-31 06:00:00 11.5 6 Nordeste 13 Este 0 -- -- 90
2019-03-31 05:00:00 11.7 6 Este 16 Este 0 -- -- 91
2019-03-31 03:00:00 11.5 4 Este 12 Este 0 -- -- 92
2019-03-31 01:00:00 11.5 5 Este 18 Sudeste 0 -- -- 91
2019-03-31 00:00:00 12 7 Este 15 Este 0 -- -- 89
2019-03-30 23:00:00 12.1 10 Este 17 Este 0 -- -- 88
2019-03-30 22:00:00 12.5 9 Este 23 Este 0 -- -- 86
2019-03-30 21:00:00 12.8 14 Este 26 Este 0 -- -- 84
2019-03-30 20:00:00 13 15 Este 25 Este 0 -- -- 82
2019-03-30 19:00:00 13.4 15 Este 24 Este 0 -- -- 76
2019-03-30 18:00:00 13.9 14 Este 32 Este 0 -- -- 74
2019-03-30 17:00:00 14.3 17 Este 35 Este 0 -- -- 74
2019-03-30 16:00:00 15.4 17 Este 32 Nordeste 0 -- -- 67
2019-03-30 15:00:00 15.8 18 Sudeste 30 Sudeste 0 -- -- 63
2019-03-30 14:00:00 17.3 18 Sudeste 28 Sudeste 0 -- -- 58
2019-03-30 13:00:00 16.9 14 Este 30 Sudeste 0 -- -- 59
2019-03-30 12:00:00 16.6 15 Este 28 Nordeste 0 -- -- 58
2019-03-30 11:00:00 16.2 10 Este 28 Este 0 -- -- 58
2019-03-30 10:00:00 15.4 8 Sudeste 22 Sudeste 0 -- -- 62
2019-03-30 09:00:00 14.2 10 Sudeste 18 Este 0 -- -- 63
2019-03-30 08:00:00 12.7 6 Sudeste 12 Sudeste 0 -- -- 71
2019-03-30 07:00:00 8.9 2 Sudeste 5 Sudeste 0 -- -- 85
2019-03-30 06:00:00 8.5 0 Calma 5 Sudeste 0 -- -- 87
2019-03-30 05:00:00 8.7 4 Sudeste 8 Sudeste 0 -- -- 84
2019-03-30 04:00:00 8 3 Sudeste 11 Sudeste 0 -- -- 85
2019-03-30 03:00:00 8 2 Sur 11 Este 0 -- -- 85
2019-03-30 02:00:00 9.1 4 Sur 8 Sudeste 0 -- -- 82
2019-03-30 01:00:00 8.9 5 Sudeste 9 Sudeste 0 -- -- 81
2019-03-30 00:00:00 9.2 4 Sudeste 9 Sudeste 0 -- -- 79
2019-03-29 23:00:00 10.4 7 Sudeste 15 Este 0 -- -- 75
2019-03-29 22:00:00 10.1 8 Sudeste 10 Sudeste 0 -- -- 75
2019-03-29 21:00:00 10.3 6 Sudeste 10 Sudeste 0 -- -- 75
2019-03-29 20:00:00 11.7 6 Sudeste 16 Este 0 -- -- 70
2019-03-29 19:00:00 12.9 5 Sudoeste 12 Sudoeste 0 -- -- 67
2019-03-29 18:00:00 14.4 2 Norte 13 Sudoeste 0 -- -- 61
2019-03-29 17:00:00 14.7 8 Sudoeste 17 Sudoeste 0 -- -- 60
2019-03-29 16:00:00 14.1 10 Sudoeste 20 Sudoeste 0 -- -- 62
2019-03-29 15:00:00 14.9 9 Nordeste 24 Nordeste 0 -- -- 60
2019-03-29 14:00:00 14.9 9 Nordeste 19 Norte 0 -- -- 59
2019-03-29 13:00:00 14.2 14 Norte 27 Nordeste 0 -- -- 63
2019-03-29 12:00:00 15.6 14 Nordeste 28 Nordeste 0 -- -- 55
2019-03-29 11:00:00 14.6 19 Nordeste 27 Nordeste 0 -- -- 52
2019-03-29 10:00:00 13.8 17 Nordeste 30 Nordeste 0 -- -- 60
2019-03-29 09:00:00 13.2 17 Nordeste 26 Nordeste 0 -- -- 63
2019-03-29 08:00:00 11.4 3 Nordeste 7 Nordeste 0 -- -- 81
2019-03-29 07:00:00 8.7 0 Calma 8 Nordeste 0 -- -- 89
2019-03-29 06:00:00 8.8 2 Nordeste 5 Norte 0 -- -- 89
2019-03-29 05:00:00 9.2 5 Nordeste 12 Este 0 -- -- 87
2019-03-29 04:00:00 8.3 6 Norte 8 Norte 0 -- -- 86
2019-03-29 03:00:00 8.7 4 Norte 5 Norte 0 -- -- 85
2019-03-29 02:00:00 8.6 0 Calma 5 Noroeste 0 -- -- 82
2019-03-29 01:00:00 8 2 Norte 5 Noroeste 0 -- -- 80
2019-03-29 00:00:00 8.6 0 Calma 3 Sur 0 -- -- 78
2019-03-28 23:00:00 8.2 0 Calma 4 Oeste 0 -- -- 79
2019-03-28 22:00:00 9.2 0 Calma 4 Sudoeste 0 -- -- 73
2019-03-28 21:00:00 9.3 3 Oeste 4 Oeste 0 -- -- 72
2019-03-28 20:00:00 10.3 2 Oeste 7 Nordeste 0 -- -- 68
2019-03-28 19:00:00 12.4 6 Nordeste 25 Nordeste 0 -- -- 60
2019-03-28 18:00:00 13.4 18 Nordeste 31 Nordeste 0 -- -- 53
2019-03-28 17:00:00 14 22 Nordeste 34 Nordeste 0 -- -- 52
2019-03-28 16:00:00 14.3 23 Nordeste 35 Nordeste 0 -- -- 54
2019-03-28 15:00:00 14.7 24 Nordeste 36 Nordeste 0 -- -- 51
2019-03-28 14:00:00 14.3 21 Nordeste 35 Nordeste 0 -- -- 63
2019-03-28 13:00:00 14.6 19 Nordeste 36 Nordeste 0 -- -- 59
2019-03-28 12:00:00 14.9 24 Nordeste 40 Nordeste 0 -- -- 48
2019-03-28 11:00:00 14.2 26 Nordeste 43 Norte 0 -- -- 58
2019-03-28 10:00:00 14.1 21 Nordeste 40 Nordeste 0 -- -- 61
2019-03-28 09:00:00 13.3 21 Nordeste 36 Nordeste 0 -- -- 63
2019-03-28 08:00:00 12.4 14 Norte 24 Norte 0 -- -- 68
2019-03-28 07:00:00 9.4 8 Nordeste 15 Norte 0 -- -- 77
2019-03-28 06:00:00 9.3 9 Norte 14 Norte 0 -- -- 79
2019-03-28 05:00:00 8.7 6 Norte 11 Norte 0 -- -- 79
2019-03-28 04:00:00 8.8 6 Norte 14 Norte 0 -- -- 78
2019-03-28 03:00:00 9.5 10 Norte 18 Norte 0 -- -- 81
2019-03-28 02:00:00 9.9 10 Norte 22 Noroeste 0 -- -- 79
2019-03-28 01:00:00 10.3 13 Norte 24 Norte 0 -- -- 75
2019-03-28 00:00:00 10.6 17 Norte 25 Norte 0 -- -- 70
2019-03-27 23:00:00 8.9 10 Norte 14 Norte 0 -- -- 76
2019-03-27 22:00:00 8.1 0 Calma 6 Norte 0 -- -- 75
2019-03-27 21:00:00 9 3 Oeste 8 Norte 0 -- -- 74
2019-03-27 20:00:00 10.7 6 Nordeste 20 Norte 0 -- -- 69
2019-03-27 19:00:00 11.5 11 Norte 25 Norte 0 -- -- 68
2019-03-27 18:00:00 12.5 17 Norte 25 Norte 0 -- -- 62
2019-03-27 17:00:00 13.2 17 Norte 25 Norte 0 -- -- 64
2019-03-27 16:00:00 13.8 17 Norte 31 Norte 0 -- -- 59
2019-03-27 15:00:00 14.2 19 Nordeste 38 Norte 0 -- -- 61
2019-03-27 14:00:00 14 26 Norte 37 Norte 0 -- -- 55
2019-03-27 13:00:00 13.6 27 Norte 46 Norte 0 -- -- 57
2019-03-27 12:00:00 13.3 30 Norte 47 Norte 0 -- -- 63
2019-03-27 11:00:00 12.9 33 Norte 47 Norte 0 -- -- 65
2019-03-27 10:00:00 13 28 Norte 42 Norte 0 -- -- 68
2019-03-27 09:00:00 12.5 26 Norte 44 Norte 0 -- -- 68
2019-03-27 08:00:00 11.9 27 Norte 41 Norte 0 -- -- 71
2019-03-27 07:00:00 11.4 20 Norte 32 Norte 0 -- -- 74
2019-03-27 06:00:00 11.2 19 Norte 36 Norte 0 -- -- 71
2019-03-27 05:00:00 11.4 22 Norte 34 Norte 0 -- -- 69
2019-03-27 04:00:00 11.3 21 Norte 40 Norte 0 -- -- 68
2019-03-27 03:00:00 11.2 20 Norte 32 Norte 0 -- -- 67
2019-03-27 02:00:00 10.3 10 Norte 22 Norte 0 -- -- 73
2019-03-27 01:00:00 8.5 12 Norte 18 Norte 0 -- -- 72
2019-03-27 00:00:00 8 7 Norte 10 Norte 0 -- -- 67
2019-03-26 23:00:00 7.8 3 Oeste 9 Noroeste 0 -- -- 65
2019-03-26 22:00:00 7.6 5 Sudoeste 6 Sudoeste 0 -- -- 66
2019-03-26 21:00:00 8 3 Sudoeste 9 Oeste 0 -- -- 65
2019-03-26 20:00:00 9.9 4 Nordeste 20 Norte 0 -- -- 56
2019-03-26 19:00:00 11 13 Norte 34 Norte 0 -- -- 54
2019-03-26 18:00:00 11.8 25 Norte 43 Norte 0 -- -- 51
2019-03-26 17:00:00 11.6 23 Norte 42 Norte 0 -- -- 65
2019-03-26 16:00:00 11.5 19 Norte 60 Nordeste 0 -- -- 60
2019-03-26 15:00:00 12.2 30 Norte 47 Norte 0 -- -- 59
2019-03-26 14:00:00 11.8 35 Norte 58 Norte 0 -- -- 54
2019-03-26 13:00:00 11.3 36 Norte 61 Norte 0 -- -- 54
2019-03-26 12:00:00 11.9 32 Norte 60 Norte 0 -- -- 54
2019-03-26 11:00:00 11.7 37 Norte 63 Norte 0 -- -- 52
2019-03-26 10:00:00 11.6 39 Norte 69 Norte 0 -- -- 52
2019-03-26 09:00:00 11.2 46 Norte 67 Norte 0 -- -- 46
2019-03-26 08:00:00 10.9 38 Norte 65 Norte 0 -- -- 45
2019-03-26 07:00:00 10.9 39 Norte 59 Norte 0 -- -- 41
2019-03-26 06:00:00 11.7 36 Norte 59 Norte 0 -- -- 37
2019-03-26 05:00:00 12.2 36 Norte 67 Norte 0 -- -- 44
2019-03-26 04:00:00 12.6 33 Norte 62 Norte 0 -- -- 55
2019-03-26 03:00:00 11.8 20 Norte 41 Norte 0 -- -- 63
2019-03-26 02:00:00 12.6 27 Norte 45 Norte 0 -- -- 59
2019-03-26 01:00:00 11.2 9 Norte 18 Noroeste 0 -- -- 73
2019-03-26 00:00:00 10.4 3 Noroeste 8 Noroeste 0 -- -- 81
2019-03-25 23:00:00 10.2 3 Sudoeste 10 Sudoeste 0 -- -- 81
2019-03-25 22:00:00 10.3 4 Sudoeste 7 Sudoeste 0 -- -- 84
2019-03-25 21:00:00 10.6 0 Calma 3 Oeste 0 -- -- 84
2019-03-25 20:00:00 11.4 2 Oeste 8 Norte 0 -- -- 79
2019-03-25 19:00:00 13 7 Norte 10 Norte 0 -- -- 74
2019-03-25 18:00:00 14.6 6 Norte 17 Norte 0 -- -- 64
2019-03-25 17:00:00 15.3 11 Norte 23 Nordeste 0 -- -- 62
2019-03-25 16:00:00 16 16 Nordeste 31 Nordeste 0 -- -- 59
2019-03-25 15:00:00 16 24 Nordeste 36 Nordeste 0 -- -- 57
2019-03-25 14:00:00 16.6 28 Nordeste 40 Nordeste 0 -- -- 52
2019-03-25 13:00:00 17.4 20 Nordeste 44 Nordeste 0 -- -- 45
2019-03-25 12:00:00 16.9 30 Nordeste 45 Norte 0 -- -- 47
2019-03-25 11:00:00 17.2 22 Norte 36 Nordeste 0 -- -- 44
2019-03-25 10:00:00 17 13 Norte 21 Norte 0 -- -- 53
2019-03-25 09:00:00 16 8 Norte 13 Norte 0 -- -- 58
2019-03-25 08:00:00 13.9 3 Sudeste 5 Sudeste 0 -- -- 58
2019-03-25 07:00:00 11.8 0 Calma 6 Norte 0 -- -- 53
2019-03-25 06:00:00 12 2 Sudeste 4 Sudeste 0 -- -- 50
2019-03-25 05:00:00 11 4 Sudeste 6 Sudeste 0 -- -- 70
2019-03-25 04:00:00 10.6 3 Sudeste 5 Sudeste 0 -- -- 82
2019-03-25 03:00:00 10.6 2 Nordeste 4 Norte 0 -- -- 75
2019-03-25 02:00:00 10.5 0 Calma 2 Sudeste 0 -- -- 79
2019-03-25 01:00:00 11.2 0 Calma 12 Sudoeste 0 -- -- 74
2019-03-25 00:00:00 10.6 8 Sudoeste 11 Sudoeste 0 -- -- 79